Date,TemperatureHighF,TemperatureAvgF,TemperatureLowF,DewpointHighF,DewpointAvgF,DewpointLowF,HumidityHigh,HumidityAvg,HumidityLow,PressureMaxIn,PressureMinIn,WindSpeedMaxMPH,WindSpeedAvgMPH,GustSpeedMaxMPH,PrecipitationSumIn
2013-2-1,50.7,42.7,35.9,35.4,27.5,20.3,72,56,33,30.51,30.31,15,1,15,0.00
2013-2-2,67.5,49.7,34.8,48.6,36.8,22.4,90,62,46,30.38,30.19,18,1,18,0.00
2013-2-3,65.5,48.8,35.5,44.1,36.0,29.5,96,67,28,30.30,30.17,15,1,15,0.00
2013-2-4,58.7,50.0,41.3,44.8,37.8,32.5,82,64,47,30.18,30.00,8,0,8,0.00
2013-2-5,63.4,54.9,48.3,57.5,51.7,44.1,96,89,75,30.10,29.97,6,0,6,0.00
2013-2-6,69.5,56.8,43.9,58.1,52.0,42.6,97,85,63,30.19,30.01,7,0,7,0.14
2013-2-7,66.6,58.6,52.0,59.3,55.9,50.4,96,91,74,30.05,29.92,7,0,7,0.01
2013-2-8,58.0,53.4,42.1,56.5,50.0,38.8,96,89,77,30.27,29.97,14,1,14,0.00
2013-2-9,63.2,49.2,34.8,48.1,40.4,33.3,94,74,44,30.31,30.10,8,1,8,0.00
2013-2-10,62.7,58.5,53.7,61.1,56.5,47.0,97,93,78,30.11,29.87,17,2,17,1.98
2013-2-11,61.3,53.2,49.6,60.4,52.1,48.5,97,96,94,30.24,30.02,7,0,7,0.57
2013-2-12,49.9,48.9,47.2,49.1,47.8,45.7,97,96,89,30.16,29.81,25,1,25,1.01
2013-2-13,49.9,45.8,35.9,49.1,41.7,33.7,97,86,73,30.12,29.85,18,2,18,0.00
2013-2-14,59.5,43.9,31.3,44.5,37.5,29.9,97,81,49,30.19,30.10,6,0,6,0.00
2013-2-15,60.7,47.1,33.7,44.2,38.0,32.2,96,73,43,30.23,30.14,12,1,12,0.00
2013-2-16,47.4,41.1,30.8,34.0,25.3,17.0,76,55,32,30.34,30.22,18,2,18,0.00
2013-2-17,60.4,44.2,28.4,37.0,29.3,23.7,85,59,34,30.38,30.21,11,1,11,0.00
2013-2-18,67.1,53.6,42.1,55.4,45.7,35.6,95,75,57,30.24,29.91,22,3,22,0.46
2013-2-19,56.4,49.6,39.1,55.0,38.4,28.3,95,67,36,30.32,29.99,18,2,18,0.07
2013-2-20,53.9,43.9,34.8,32.3,27.8,23.0,84,55,32,30.33,30.13,11,1,11,0.00
2013-2-21,61.2,50.1,40.8,60.3,41.4,25.9,97,74,49,30.13,29.77,15,1,15,2.13
2013-2-22,63.7,54.2,47.8,55.4,51.0,46.4,96,90,61,30.08,29.93,9,1,9,0.12
2013-2-23,57.9,48.6,40.1,48.4,43.8,37.6,98,84,67,30.05,29.94,10,1,10,0.00
2013-2-24,69.5,52.3,36.9,45.8,40.7,34.2,94,68,38,30.08,29.81,11,1,11,0.00
2013-2-25,62.4,57.9,52.2,60.7,54.1,42.7,96,88,59,29.83,29.42,19,1,22,0.59
2013-2-26,55.5,45.6,36.4,51.6,37.6,34.3,92,74,64,29.94,29.51,19,2,19,0.00
2013-2-27,61.9,47.4,33.6,41.4,37.3,32.1,96,71,40,30.08,29.94,15,1,15,0.00
2013-2-28,52.7,44.3,36.4,38.8,33.0,29.4,88,66,44,30.17,30.06,15,1,15,0.00